Международный

СКИДКИ НА СМАРТФОНЫ!

Карта отелей и гостиниц, располагающихся рядом с аэропортом Международный :

Международный
Львов
Львовская область 49° 48' 34.8012" N, 23° 57' 30.5388" E
Код аэродрома ИКАО
UKLL
Код аэродрома RU
УКЛЛ
Координаты
N49.80967° E023.95848°
Превышение над уровнем моря
328
Основная полоса
13/31
Курс магнитный
130,2/310,2
Длина основной ВПП
3346
Ширина основной ВПП
45
Покрытие основной ВПП
Твёрдое (цементобетон)
Освещение ВПП
Постоянное
Тип: 
Аэродром
Принадлежность: 
ГА
Статус: 
Действующий
Сайт: 
http://www.airport.lviv.ua/
Страна: 
Украина
Регион: 
Львовская область
Город: 
Львов
Дополнительная информация: 
Гражданская авиационная администрация. Ранее АД назывался "Скнилов".

Скидки на навигаторы!

Найти трансфер

С помощью этой формы Вы можете найти трансфер из аэропорта Международный в город, аэропорт или вокзал:

Погода в аэропортах:

Авиационная погода в Тулча

Регион: 
Погода METAR: 
LRTC 091230Z 36015KT 9999 VCTS FEW050CB 32/12 Q1014
Время наблюдения
2022-08-09T12:30:00Z
Температура C
32.0
Точка росы
12.0
Направление ветра
360
Скорость ветра (узлы)
15
Метео видимость
6.21
Облачность
FEW
Нижняя граница облачности (футы)
5000
Явления погоды
VCTS
Условия полета
VFR
FEW – незначительная облачность;

Авиационная погода в аэропорту Семей

Регион: 
Погода METAR: 
UASS 091130Z 31004MPS 280V350 9999 -SHRA SCT040CB 24/14 Q1005 NOSIG RMK QFE735/0981
Время наблюдения
2022-08-09T11:30:00Z
Температура C
24.0
Точка росы
14.0
Направление ветра
310
Скорость ветра (узлы)
8
Метео видимость
6.21
Облачность
SCT
Нижняя граница облачности (футы)
4000
Явления погоды
-SHRA
Условия полета
VFR
Аэропорт подробнее: 
SCT – разбросанная отдельная облачность;
-SHRA - слабый ливневой дождь;

Авиационная погода в Вадсё

Регион: 
Погода METAR: 
ENVD 091220Z 27012KT 9999 -SHRA SCT047 BKN057 15/09 Q1016
Время наблюдения
2022-08-09T12:20:00Z
Температура C
15.0
Точка росы
9.0
Направление ветра
270
Скорость ветра (узлы)
12
Метео видимость
6.21
Облачность
SCT
BKN
Нижняя граница облачности (футы)
4700
5700
Явления погоды
-SHRA
Условия полета
VFR
SCT – разбросанная отдельная облачность; BKN – значительная (рассеянная, разорванная) облачность;
-SHRA - слабый ливневой дождь;

Авиационная погода в Нижнем Новгороде

Регион: 
Погода METAR: 
UWGG 091230Z 35003MPS 9999 -SHRA SCT040CB 22/21 Q1020 R36R/190060 TEMPO -TSRA
Время наблюдения
2022-08-09T12:30:00Z
Температура C
22.0
Точка росы
21.0
Направление ветра
350
Скорость ветра (узлы)
6
Метео видимость
6.21
Облачность
SCT
Нижняя граница облачности (футы)
4000
Явления погоды
-SHRA
Условия полета
VFR
Аэропорт подробнее: 
SCT – разбросанная отдельная облачность;
-SHRA - слабый ливневой дождь;